Terminal Aerodrome Forecast
Issued by NWS

Home | Current Version | Previous Version | Text Only | Print | Product List | Glossary On
Versions: 1 2 3 4 5 6 7 8 9 10 11 12
000
FTUS46 KHNX 161100
TAFMER
TAF
KMER 161129Z 1612/1712 34005KT P6SM SKC
     FM161800 32011KT P6SM SKC
      TEMPO 1621/1701 32014G21KT
     FM170400 34005KT P6SM SKC=

USA.gov is the U.S. government's official web portal to all federal, state and local government web resources and services.